createdAt,value
2022-09-10T00:00:22.938Z,5
2022-09-10T00:01:22.933Z,4
2022-09-10T00:02:22.933Z,4
2022-09-10T00:03:22.935Z,6
2022-09-10T00:04:22.935Z,5
2022-09-10T00:05:22.938Z,4
2022-09-10T00:06:22.932Z,5
2022-09-10T00:07:22.927Z,4
2022-09-10T00:08:22.940Z,4
2022-09-10T00:09:22.938Z,4
2022-09-10T00:10:22.931Z,6
2022-09-10T00:11:22.934Z,5
2022-09-10T00:12:22.969Z,5
2022-09-10T00:13:22.949Z,4
2022-09-10T00:14:22.939Z,6
2022-09-10T00:15:22.937Z,3
2022-09-10T00:16:23.062Z,4
2022-09-10T00:17:22.940Z,5
2022-09-10T00:18:22.942Z,5
2022-09-10T00:19:22.938Z,4
2022-09-10T00:20:22.936Z,7
2022-09-10T00:21:22.946Z,4
2022-09-10T00:22:22.943Z,4
2022-09-10T00:23:22.954Z,6
2022-09-10T00:24:23.031Z,3
2022-09-10T00:25:23.329Z,4
2022-09-10T00:26:22.951Z,5
2022-09-10T00:27:22.941Z,5
2022-09-10T00:28:22.949Z,4
2022-09-10T00:29:22.948Z,3
2022-09-10T00:30:22.960Z,5
2022-09-10T00:31:22.988Z,5
2022-09-10T00:32:22.942Z,4
2022-09-10T00:33:22.952Z,4
2022-09-10T00:34:22.940Z,5
2022-09-10T00:35:22.945Z,7
2022-09-10T00:36:22.958Z,4
2022-09-10T00:37:22.952Z,6
2022-09-10T00:38:22.948Z,6
2022-09-10T00:39:23.024Z,4
2022-09-10T00:40:22.945Z,5
2022-09-10T00:41:22.952Z,6
2022-09-10T00:42:22.962Z,4
2022-09-10T00:43:22.984Z,3
2022-09-10T00:44:22.958Z,5
2022-09-10T00:45:23.004Z,4
2022-09-10T00:46:22.961Z,5
2022-09-10T00:47:22.960Z,4
2022-09-10T00:48:22.956Z,4
2022-09-10T00:49:22.964Z,3
2022-09-10T00:50:22.965Z,4
2022-09-10T00:51:22.954Z,4
2022-09-10T00:52:22.963Z,5
2022-09-10T00:53:22.959Z,4
2022-09-10T00:54:23.037Z,3
2022-09-10T00:55:22.955Z,4
2022-09-10T00:56:22.958Z,4
2022-09-10T00:57:22.957Z,5
2022-09-10T00:58:22.965Z,5
2022-09-10T00:59:22.959Z,3
2022-09-10T01:00:22.975Z,4
2022-09-10T01:01:22.967Z,3
2022-09-10T01:02:22.968Z,4
2022-09-10T01:03:25.450Z,3
2022-09-10T01:04:23.033Z,5
2022-09-10T01:05:22.956Z,3
2022-09-10T01:06:22.961Z,3
2022-09-10T01:07:22.984Z,3
2022-09-10T01:08:22.962Z,4
2022-09-10T01:09:22.960Z,3
2022-09-10T01:10:22.982Z,5
2022-09-10T01:11:22.969Z,6
2022-09-10T01:12:22.965Z,4
2022-09-10T01:13:22.971Z,3
2022-09-10T01:14:22.990Z,4
2022-09-10T01:15:22.968Z,3
2022-09-10T01:16:23.036Z,4
2022-09-10T01:17:22.970Z,5
2022-09-10T01:18:22.964Z,4
2022-09-10T01:19:22.975Z,3
2022-09-10T01:20:22.975Z,4
2022-09-10T01:21:22.973Z,4
2022-09-10T01:22:23.012Z,5
2022-09-10T01:23:22.973Z,5
2022-09-10T01:24:22.969Z,5
2022-09-10T01:25:22.988Z,5
2022-09-10T01:26:22.984Z,5
2022-09-10T01:27:22.974Z,4
2022-09-10T01:28:22.973Z,5
2022-09-10T01:29:22.969Z,4
2022-09-10T01:30:22.973Z,4
2022-09-10T01:31:23.009Z,3
2022-09-10T01:32:22.977Z,4
2022-09-10T01:33:22.972Z,4
2022-09-10T01:34:22.977Z,4
2022-09-10T01:35:22.989Z,4
2022-09-10T01:36:22.994Z,3
2022-09-10T01:37:22.980Z,3
2022-09-10T01:38:22.984Z,4
2022-09-10T01:39:23.014Z,4
2022-09-10T01:40:22.982Z,5
2022-09-10T01:41:22.978Z,3
2022-09-10T01:42:22.981Z,3
2022-09-10T01:43:22.984Z,2
2022-09-10T01:44:22.987Z,4
2022-09-10T01:45:23.044Z,4
2022-09-10T01:46:22.985Z,5
2022-09-10T01:47:22.985Z,3
2022-09-10T01:48:22.984Z,5
2022-09-10T01:49:22.985Z,3
2022-09-10T01:50:22.987Z,4
2022-09-10T01:51:22.988Z,3
2022-09-10T01:52:22.988Z,3
2022-09-10T01:53:22.987Z,5
2022-09-10T01:54:22.988Z,4
2022-09-10T01:55:22.986Z,3
2022-09-10T01:56:22.990Z,5
2022-09-10T01:57:22.993Z,3
2022-09-10T01:58:22.990Z,4
2022-09-10T01:59:22.995Z,3
2022-09-10T02:00:22.987Z,2
2022-09-10T02:01:23.014Z,5
2022-09-10T02:02:23.031Z,4
2022-09-10T02:03:22.994Z,4
2022-09-10T02:04:22.995Z,3
2022-09-10T02:05:22.986Z,3
2022-09-10T02:06:22.992Z,5
2022-09-10T02:07:22.990Z,3
2022-09-10T02:08:22.991Z,4
2022-09-10T02:09:22.989Z,4
2022-09-10T02:10:22.991Z,2
2022-09-10T02:11:22.999Z,4
2022-09-10T02:12:23.000Z,2
2022-09-10T02:13:23.000Z,5
2022-09-10T02:14:22.994Z,5
2022-09-10T02:15:22.995Z,2
2022-09-10T02:16:23.122Z,3
2022-09-10T02:17:22.999Z,4
2022-09-10T02:18:23.002Z,3
2022-09-10T02:19:22.999Z,3
2022-09-10T02:20:22.999Z,3
2022-09-10T02:21:22.998Z,4
2022-09-10T02:22:23.007Z,4
2022-09-10T02:23:23.009Z,4
2022-09-10T02:24:23.000Z,4
2022-09-10T02:25:23.008Z,3
2022-09-10T02:26:23.007Z,3
2022-09-10T02:27:23.003Z,4
2022-09-10T02:28:23.002Z,4
2022-09-10T02:29:23.005Z,3
2022-09-10T02:30:23.004Z,3
2022-09-10T02:31:23.051Z,3
2022-09-10T02:32:23.003Z,4
2022-09-10T02:33:23.002Z,4
2022-09-10T02:34:23.000Z,5
2022-09-10T02:35:23.009Z,5
2022-09-10T02:36:22.997Z,4
2022-09-10T02:37:23.003Z,2
2022-09-10T02:38:23.005Z,5
2022-09-10T02:39:23.010Z,3
2022-09-10T02:40:23.005Z,4
2022-09-10T02:41:23.003Z,4
2022-09-10T02:42:23.006Z,4
2022-09-10T02:43:23.014Z,6
2022-09-10T02:44:23.005Z,3
2022-09-10T02:45:23.093Z,4
2022-09-10T02:46:23.010Z,3
2022-09-10T02:47:23.035Z,4
2022-09-10T02:48:23.012Z,6
2022-09-10T02:49:23.013Z,6
2022-09-10T02:50:23.010Z,5
2022-09-10T02:51:23.009Z,4
2022-09-10T02:52:23.016Z,4
2022-09-10T02:53:23.013Z,3
2022-09-10T02:54:23.011Z,4
2022-09-10T02:55:23.011Z,6
2022-09-10T02:56:23.010Z,4
2022-09-10T02:57:23.015Z,4
2022-09-10T02:58:23.015Z,5
2022-09-10T02:59:23.010Z,6
2022-09-10T03:00:23.020Z,4
2022-09-10T03:02:23.072Z,5
2022-09-10T03:03:23.020Z,5
2022-09-10T03:04:23.023Z,7
2022-09-10T03:05:23.111Z,4
2022-09-10T03:06:23.020Z,3
2022-09-10T03:07:23.023Z,5
2022-09-10T03:08:23.016Z,6
2022-09-10T03:09:23.021Z,5
2022-09-10T03:10:23.022Z,3
2022-09-10T03:11:23.013Z,3
2022-09-10T03:12:23.025Z,4
2022-09-10T03:13:23.039Z,5
2022-09-10T03:14:23.023Z,5
2022-09-10T03:15:23.028Z,4
2022-09-10T03:16:23.028Z,5
2022-09-10T03:17:23.022Z,4
2022-09-10T03:19:23.025Z,5
2022-09-10T03:20:23.023Z,5
2022-09-10T03:21:23.019Z,4
2022-09-10T03:22:23.024Z,6
2022-09-10T03:23:23.035Z,4
2022-09-10T03:24:23.020Z,4
2022-09-10T03:25:23.023Z,5
2022-09-10T03:26:23.027Z,4
2022-09-10T03:27:23.024Z,4
2022-09-10T03:28:23.031Z,3
2022-09-10T03:29:23.028Z,5
2022-09-10T03:30:23.026Z,4
2022-09-10T03:31:23.053Z,5
2022-09-10T03:32:23.037Z,4
2022-09-10T03:33:23.057Z,5
2022-09-10T03:34:23.053Z,4
2022-09-10T03:35:23.032Z,4
2022-09-10T03:36:23.026Z,6
2022-09-10T03:37:23.051Z,4
2022-09-10T03:38:23.032Z,4
2022-09-10T03:39:23.034Z,6
2022-09-10T03:40:23.035Z,6
2022-09-10T03:41:23.030Z,6
2022-09-10T03:42:23.043Z,6
2022-09-10T03:43:23.041Z,6
2022-09-10T03:44:23.034Z,7
2022-09-10T03:45:23.073Z,6
2022-09-10T03:46:23.042Z,6
2022-09-10T03:47:23.038Z,6
2022-09-10T03:48:23.038Z,5
2022-09-10T03:49:23.037Z,6
2022-09-10T03:51:23.035Z,8
2022-09-10T03:52:23.033Z,7
2022-09-10T03:53:23.039Z,10
2022-09-10T03:54:23.043Z,9
2022-09-10T03:55:23.039Z,8
2022-09-10T03:56:23.048Z,6
2022-09-10T03:57:23.044Z,7
2022-09-10T03:58:23.059Z,8
2022-09-10T03:59:23.043Z,6
2022-09-10T04:00:23.043Z,6
2022-09-10T04:01:23.091Z,9
2022-09-10T04:02:23.093Z,8
2022-09-10T04:03:23.044Z,6
2022-09-10T04:04:23.050Z,6
2022-09-10T04:05:23.068Z,8
2022-09-10T04:06:23.069Z,9
2022-09-10T04:07:23.056Z,7
2022-09-10T04:08:23.043Z,5
2022-09-10T04:09:23.044Z,6
2022-09-10T04:10:23.050Z,7
2022-09-10T04:11:23.044Z,6
2022-09-10T04:12:23.048Z,8
2022-09-10T04:13:23.060Z,8
2022-09-10T04:14:23.050Z,8
2022-09-10T04:15:23.048Z,8
2022-09-10T04:16:23.109Z,7
2022-09-10T04:17:23.049Z,7
2022-09-10T04:18:23.047Z,10
2022-09-10T04:19:23.055Z,11
2022-09-10T04:21:23.056Z,10
2022-09-10T04:22:23.053Z,6
2022-09-10T04:23:23.053Z,9
2022-09-10T04:24:23.056Z,9
2022-09-10T04:25:23.059Z,8
2022-09-10T04:26:23.059Z,10
2022-09-10T04:27:23.060Z,8
2022-09-10T04:28:23.054Z,8
2022-09-10T04:29:23.053Z,9
2022-09-10T04:30:23.056Z,8
2022-09-10T04:31:23.090Z,10
2022-09-10T04:32:23.062Z,7
2022-09-10T04:33:23.050Z,6
2022-09-10T04:34:23.061Z,6
2022-09-10T04:37:23.063Z,7
2022-09-10T04:38:23.058Z,6
2022-09-10T04:39:23.061Z,7
2022-09-10T04:40:23.065Z,5
2022-09-10T04:41:23.066Z,6
2022-09-10T04:42:23.062Z,7
2022-09-10T04:43:23.080Z,9
2022-09-10T04:44:23.068Z,7
2022-09-10T04:45:23.068Z,5
2022-09-10T04:46:23.069Z,6
2022-09-10T04:47:23.071Z,8
2022-09-10T04:48:23.069Z,7
2022-09-10T04:49:23.060Z,7
2022-09-10T04:50:23.105Z,5
2022-09-10T04:51:23.071Z,9
2022-09-10T04:52:23.070Z,7
2022-09-10T04:53:23.080Z,8
2022-09-10T04:54:23.069Z,7
2022-09-10T04:55:23.067Z,10
2022-09-10T04:56:23.062Z,8
2022-09-10T04:57:23.069Z,7
2022-09-10T04:58:23.075Z,8
2022-09-10T04:59:23.074Z,7
2022-09-10T05:00:23.068Z,8
2022-09-10T05:01:23.118Z,9
2022-09-10T05:02:23.094Z,8
2022-09-10T05:03:23.073Z,7
2022-09-10T05:04:23.074Z,8
2022-09-10T05:05:23.063Z,6
2022-09-10T05:06:23.104Z,8
2022-09-10T05:07:23.097Z,5
2022-09-10T05:08:23.071Z,6
2022-09-10T05:09:23.113Z,8
2022-09-10T05:10:23.072Z,7
2022-09-10T05:11:23.074Z,5
2022-09-10T05:12:23.077Z,5
2022-09-10T05:13:23.077Z,5
2022-09-10T05:14:23.094Z,6
2022-09-10T05:15:23.083Z,6
2022-09-10T05:16:23.131Z,5
2022-09-10T05:17:23.089Z,4
2022-09-10T05:18:23.072Z,6
2022-09-10T05:19:23.081Z,6
2022-09-10T05:20:23.080Z,6
2022-09-10T05:21:23.078Z,7
2022-09-10T05:22:23.077Z,7
2022-09-10T05:23:23.092Z,6
2022-09-10T05:24:23.093Z,9
2022-09-10T05:25:23.075Z,8
2022-09-10T05:26:23.079Z,5
2022-09-10T05:27:23.086Z,6
2022-09-10T05:28:23.086Z,8
2022-09-10T05:29:23.084Z,8
2022-09-10T05:30:23.099Z,6
2022-09-10T05:31:23.209Z,6
2022-09-10T05:32:23.081Z,8
2022-09-10T05:33:23.081Z,7
2022-09-10T05:34:23.084Z,8
2022-09-10T05:35:23.085Z,7
2022-09-10T05:36:23.088Z,7
2022-09-10T05:37:23.092Z,6
2022-09-10T05:38:23.113Z,6
2022-09-10T05:39:23.082Z,6
2022-09-10T05:40:23.101Z,8
2022-09-10T05:41:23.091Z,8
2022-09-10T05:42:23.085Z,8
2022-09-10T05:43:23.090Z,7
2022-09-10T05:44:23.091Z,8
2022-09-10T05:45:23.086Z,6
2022-09-10T05:46:23.088Z,7
2022-09-10T05:47:23.094Z,6
2022-09-10T05:48:23.095Z,9
2022-09-10T05:49:23.092Z,7
2022-09-10T05:50:23.093Z,7
2022-09-10T05:51:23.093Z,8
2022-09-10T05:52:23.100Z,9
2022-09-10T05:53:23.097Z,6
2022-09-10T05:54:23.096Z,7
2022-09-10T05:55:23.096Z,7
2022-09-10T05:56:23.096Z,8
2022-09-10T05:57:23.092Z,8
2022-09-10T05:58:23.103Z,7
2022-09-10T05:59:23.104Z,7
2022-09-10T06:00:23.101Z,8
2022-09-10T06:01:23.092Z,6
2022-09-10T06:02:24.173Z,7
2022-09-10T06:03:23.147Z,7
2022-09-10T06:04:23.096Z,7
2022-09-10T06:05:23.098Z,6
2022-09-10T06:06:23.106Z,8
2022-09-10T06:07:23.106Z,8
2022-09-10T06:08:23.100Z,6
2022-09-10T06:09:23.126Z,7
2022-09-10T06:10:23.099Z,9
2022-09-10T06:11:23.170Z,7
2022-09-10T06:12:23.106Z,9
2022-09-10T06:13:23.103Z,8
2022-09-10T06:14:23.101Z,7
2022-09-10T06:15:23.105Z,9
2022-09-10T06:16:23.133Z,6
2022-09-10T06:17:23.107Z,6
2022-09-10T06:18:23.110Z,7
2022-09-10T06:19:23.128Z,11
2022-09-10T06:20:23.103Z,8
2022-09-10T06:21:28.034Z,7
2022-09-10T06:22:23.100Z,8
2022-09-10T06:23:23.108Z,9
2022-09-10T06:24:23.128Z,8
2022-09-10T06:25:23.112Z,6
2022-09-10T06:26:23.112Z,7
2022-09-10T06:27:23.112Z,6
2022-09-10T06:28:23.115Z,8
2022-09-10T06:29:23.104Z,8
2022-09-10T06:30:23.109Z,6
2022-09-10T06:31:23.437Z,9
2022-09-10T06:32:23.130Z,7
2022-09-10T06:33:23.120Z,6
2022-09-10T06:34:23.122Z,6
2022-09-10T06:35:23.120Z,8
2022-09-10T06:37:23.118Z,8
2022-09-10T06:38:23.114Z,9
2022-09-10T06:39:23.110Z,8
2022-09-10T06:40:23.147Z,7
2022-09-10T06:41:23.135Z,8
2022-09-10T06:42:23.120Z,6
2022-09-10T06:43:23.120Z,8
2022-09-10T06:44:23.117Z,7
2022-09-10T06:45:23.122Z,8
2022-09-10T06:47:01.647Z,8
2022-09-10T06:48:40.622Z,7
2022-09-10T06:49:23.117Z,6
2022-09-10T06:50:23.113Z,6
2022-09-10T06:51:23.122Z,8
2022-09-10T06:52:23.128Z,7
2022-09-10T06:53:23.123Z,8
2022-09-10T06:54:23.124Z,6
2022-09-10T06:55:23.124Z,6
2022-09-10T06:56:23.126Z,8
2022-09-10T06:58:23.186Z,7
2022-09-10T06:59:23.123Z,11
2022-09-10T07:00:23.128Z,8
2022-09-10T07:01:23.224Z,10
2022-09-10T07:02:23.243Z,8
2022-09-10T07:03:23.190Z,8
2022-09-10T07:04:23.139Z,9
2022-09-10T07:05:23.132Z,9
2022-09-10T07:06:23.144Z,11
2022-09-10T07:07:23.129Z,10
2022-09-10T07:08:23.138Z,7
2022-09-10T07:09:23.130Z,10
2022-09-10T07:10:23.223Z,9
2022-09-10T07:11:23.152Z,8
2022-09-10T07:12:23.133Z,8
2022-09-10T07:13:23.133Z,10
2022-09-10T07:14:23.126Z,8
2022-09-10T07:15:23.134Z,8
2022-09-10T07:16:23.125Z,7
2022-09-10T07:17:23.142Z,9
2022-09-10T07:18:23.138Z,9
2022-09-10T07:19:23.131Z,8
2022-09-10T07:20:23.213Z,9
2022-09-10T07:21:23.133Z,5
2022-09-10T07:22:23.138Z,6
2022-09-10T07:23:23.136Z,9
2022-09-10T07:24:23.139Z,6
2022-09-10T07:25:23.134Z,6
2022-09-10T07:26:23.131Z,9
2022-09-10T07:27:23.539Z,7
2022-09-10T07:28:23.135Z,9
2022-09-10T07:29:23.137Z,9
2022-09-10T07:30:23.143Z,7
2022-09-10T07:31:23.207Z,7
2022-09-10T07:32:23.143Z,7
2022-09-10T07:33:23.149Z,6
2022-09-10T07:34:23.145Z,6
2022-09-10T07:35:23.138Z,10
2022-09-10T07:36:23.144Z,7
2022-09-10T07:37:23.141Z,9
2022-09-10T07:38:23.148Z,6
2022-09-10T07:39:25.532Z,6
2022-09-10T07:40:23.144Z,7
2022-09-10T07:41:23.145Z,7
2022-09-10T07:42:23.170Z,7
2022-09-10T07:43:23.150Z,5
2022-09-10T07:44:23.148Z,7
2022-09-10T07:45:23.154Z,6
2022-09-10T07:46:23.157Z,5
2022-09-10T07:47:23.146Z,9
2022-09-10T07:48:23.144Z,7
2022-09-10T07:49:23.155Z,7
2022-09-10T07:50:23.149Z,7
2022-09-10T07:51:23.154Z,6
2022-09-10T07:52:23.158Z,7
2022-09-10T07:54:23.154Z,7
2022-09-10T07:55:23.171Z,7
2022-09-10T07:56:23.150Z,7
2022-09-10T07:57:23.154Z,9
2022-09-10T07:58:23.150Z,6
2022-09-10T07:59:23.147Z,7
2022-09-10T08:00:23.155Z,7
2022-09-10T08:01:23.179Z,9
2022-09-10T08:02:23.183Z,7
2022-09-10T08:03:23.161Z,9
2022-09-10T08:04:23.161Z,7
2022-09-10T08:05:23.163Z,6
2022-09-10T08:06:23.165Z,6
2022-09-10T08:07:23.162Z,8
2022-09-10T08:08:23.153Z,6
2022-09-10T08:09:23.161Z,9
2022-09-10T08:10:23.158Z,7
2022-09-10T08:11:23.159Z,8
2022-09-10T08:12:23.160Z,6
2022-09-10T08:13:23.194Z,9
2022-09-10T08:14:23.166Z,7
2022-09-10T08:15:23.165Z,7
2022-09-10T08:16:23.165Z,6
2022-09-10T08:17:23.170Z,9
2022-09-10T08:18:23.207Z,7
2022-09-10T08:19:23.160Z,12
2022-09-10T08:20:23.162Z,8
2022-09-10T08:21:23.166Z,8
2022-09-10T08:22:23.166Z,10
2022-09-10T08:23:23.173Z,8
2022-09-10T08:24:23.163Z,9
2022-09-10T08:25:23.184Z,8
2022-09-10T08:26:23.177Z,11
2022-09-10T08:27:23.166Z,7
2022-09-10T08:28:25.336Z,9
2022-09-10T08:29:23.190Z,8
2022-09-10T08:31:23.226Z,7
2022-09-10T08:32:23.188Z,8
2022-09-10T08:33:23.170Z,10
2022-09-10T08:34:23.190Z,8
2022-09-10T08:35:23.174Z,9
2022-09-10T08:36:23.170Z,7
2022-09-10T08:37:23.164Z,6
2022-09-10T08:38:23.172Z,9
2022-09-10T08:39:23.187Z,9
2022-09-10T08:40:23.174Z,9
2022-09-10T08:41:23.169Z,11
2022-09-10T08:43:23.178Z,10
2022-09-10T08:44:23.204Z,9
2022-09-10T08:45:23.177Z,11
2022-09-10T08:46:23.179Z,9
2022-09-10T08:47:23.178Z,12
2022-09-10T08:48:23.181Z,11
2022-09-10T08:49:23.178Z,8
2022-09-10T08:50:23.184Z,9
2022-09-10T08:51:23.181Z,10
2022-09-10T08:52:23.188Z,11
2022-09-10T08:53:23.182Z,8
2022-09-10T08:54:23.177Z,9
2022-09-10T08:55:23.184Z,12
2022-09-10T08:56:23.175Z,10
2022-09-10T08:57:23.179Z,9
2022-09-10T08:58:23.190Z,8
2022-09-10T08:59:23.185Z,9
2022-09-10T09:00:23.198Z,9
2022-09-10T09:01:23.270Z,9
2022-09-10T09:02:47.288Z,10
2022-09-10T09:03:23.252Z,11
2022-09-10T09:04:23.189Z,9
2022-09-10T09:05:23.188Z,9
2022-09-10T09:06:23.193Z,10
2022-09-10T09:07:23.183Z,11
2022-09-10T09:08:23.188Z,9
2022-09-10T09:09:23.188Z,9
2022-09-10T09:10:23.191Z,13
2022-09-10T09:11:23.188Z,10
2022-09-10T09:12:23.192Z,10
2022-09-10T09:13:23.187Z,11
2022-09-10T09:14:23.198Z,11
2022-09-10T09:15:23.260Z,8
2022-09-10T09:16:23.199Z,7
2022-09-10T09:17:23.195Z,10
2022-09-10T09:18:23.191Z,8
2022-09-10T09:19:23.197Z,8
2022-09-10T09:20:23.220Z,8
2022-09-10T09:21:23.201Z,8
2022-09-10T09:22:23.186Z,7
2022-09-10T09:23:23.195Z,9
2022-09-10T09:24:23.195Z,10
2022-09-10T09:25:23.213Z,11
2022-09-10T09:26:23.196Z,12
2022-09-10T09:27:23.225Z,9
2022-09-10T09:28:23.222Z,10
2022-09-10T09:29:23.200Z,11
2022-09-10T09:30:23.199Z,9
2022-09-10T09:31:23.282Z,9
2022-09-10T09:32:23.201Z,10
2022-09-10T09:33:23.199Z,11
2022-09-10T09:34:23.196Z,11
2022-09-10T09:35:23.199Z,10
2022-09-10T09:36:23.214Z,10
2022-09-10T09:37:23.199Z,10
2022-09-10T09:38:23.202Z,13
2022-09-10T09:40:23.202Z,11
2022-09-10T09:41:23.201Z,11
2022-09-10T09:43:23.211Z,9
2022-09-10T09:44:23.200Z,12
2022-09-10T09:45:23.203Z,9
2022-09-10T09:46:23.255Z,9
2022-09-10T09:47:23.204Z,9
2022-09-10T09:48:23.199Z,7
2022-09-10T09:49:23.205Z,8
2022-09-10T09:50:23.205Z,9
2022-09-10T09:51:23.208Z,8
2022-09-10T09:52:23.205Z,8
2022-09-10T09:53:23.207Z,9
2022-09-10T09:55:23.214Z,10
2022-09-10T09:56:23.207Z,9
2022-09-10T09:57:23.206Z,9
2022-09-10T09:58:23.217Z,8
2022-09-10T09:59:23.213Z,7
2022-09-10T10:00:23.213Z,8
2022-09-10T10:01:23.306Z,7
2022-09-10T10:02:23.268Z,6
2022-09-10T10:03:23.211Z,6
2022-09-10T10:04:23.217Z,8
2022-09-10T10:05:23.211Z,8
2022-09-10T10:06:23.221Z,7
2022-09-10T10:07:23.214Z,6
2022-09-10T10:08:23.214Z,9
2022-09-10T10:09:23.229Z,7
2022-09-10T10:10:23.217Z,6
2022-09-10T10:11:23.221Z,7
2022-09-10T10:12:23.226Z,8
2022-09-10T10:13:23.231Z,6
2022-09-10T10:14:23.218Z,6
2022-09-10T10:15:23.217Z,6
2022-09-10T10:16:23.213Z,6
2022-09-10T10:17:23.243Z,6
2022-09-10T10:18:23.214Z,8
2022-09-10T10:19:23.218Z,8
2022-09-10T10:20:23.220Z,10
2022-09-10T10:21:23.226Z,9
2022-09-10T10:22:23.221Z,8
2022-09-10T10:23:23.225Z,9
2022-09-10T10:24:23.218Z,8
2022-09-10T10:25:23.236Z,9
2022-09-10T10:26:23.224Z,8
2022-09-10T10:27:23.234Z,7
2022-09-10T10:28:23.231Z,10
2022-09-10T10:29:23.218Z,8
2022-09-10T10:30:23.226Z,7
2022-09-10T10:31:23.279Z,7
2022-09-10T10:32:23.238Z,7
2022-09-10T10:33:23.224Z,7
2022-09-10T10:35:23.240Z,7
2022-09-10T10:36:23.230Z,9
2022-09-10T10:37:23.230Z,8
2022-09-10T10:38:23.233Z,10
2022-09-10T10:39:23.235Z,9
2022-09-10T10:40:23.236Z,9
2022-09-10T10:41:23.231Z,10
2022-09-10T10:42:23.244Z,9
2022-09-10T10:43:23.233Z,9
2022-09-10T10:44:23.225Z,10
2022-09-10T10:45:23.240Z,12
2022-09-10T10:46:23.268Z,9
2022-09-10T10:47:23.235Z,10
2022-09-10T10:48:23.258Z,12
2022-09-10T10:49:23.230Z,11
2022-09-10T10:50:23.227Z,11
2022-09-10T10:51:23.233Z,10
2022-09-10T10:52:23.233Z,14
2022-09-10T10:53:23.233Z,12
2022-09-10T10:54:23.233Z,13
2022-09-10T10:55:23.238Z,12
2022-09-10T10:56:23.239Z,13
2022-09-10T10:57:23.240Z,10
2022-09-10T10:58:23.238Z,12
2022-09-10T10:59:23.232Z,11
2022-09-10T11:00:23.243Z,13
2022-09-10T11:01:23.309Z,12
2022-09-10T11:02:23.341Z,13
2022-09-10T11:03:23.253Z,9
2022-09-10T11:04:23.238Z,10
2022-09-10T11:05:23.297Z,15
2022-09-10T11:06:23.245Z,11
2022-09-10T11:07:23.250Z,10
2022-09-10T11:08:23.246Z,11
2022-09-10T11:09:23.249Z,11
2022-09-10T11:10:23.253Z,11
2022-09-10T11:11:23.999Z,13
2022-09-10T11:12:23.239Z,11
2022-09-10T11:13:23.245Z,13
2022-09-10T11:14:23.270Z,11
2022-09-10T11:15:23.252Z,12
2022-09-10T11:16:23.249Z,10
2022-09-10T11:18:23.251Z,10
2022-09-10T11:19:23.281Z,11
2022-09-10T11:20:30.585Z,10
2022-09-10T11:21:23.254Z,10
2022-09-10T11:22:23.256Z,12
2022-09-10T11:23:23.255Z,12
2022-09-10T11:24:23.254Z,13
2022-09-10T11:25:23.249Z,10
2022-09-10T11:26:23.251Z,12
2022-09-10T11:27:23.251Z,12
2022-09-10T11:28:23.246Z,12
2022-09-10T11:29:23.245Z,10
2022-09-10T11:30:23.255Z,10
2022-09-10T11:31:23.308Z,12
2022-09-10T11:32:23.252Z,10
2022-09-10T11:33:23.299Z,12
2022-09-10T11:34:23.252Z,11
2022-09-10T11:35:23.255Z,12
2022-09-10T11:36:23.259Z,11
2022-09-10T11:37:23.259Z,11
2022-09-10T11:38:23.321Z,12
2022-09-10T11:39:23.256Z,10
2022-09-10T11:40:23.321Z,10
2022-09-10T11:41:23.261Z,12
2022-09-10T11:42:23.330Z,11
2022-09-10T11:43:23.256Z,10
2022-09-10T11:44:23.265Z,11
2022-09-10T11:45:23.266Z,11
2022-09-10T11:46:23.302Z,11
2022-09-10T11:47:23.267Z,10
2022-09-10T11:48:23.264Z,9
2022-09-10T11:49:23.276Z,10
2022-09-10T11:50:23.327Z,12
2022-09-10T11:51:23.266Z,10
2022-09-10T11:52:23.268Z,9
2022-09-10T11:53:23.323Z,10
2022-09-10T11:54:23.270Z,10
2022-09-10T11:55:23.278Z,12
2022-09-10T11:56:23.273Z,10
2022-09-10T11:57:23.269Z,9
2022-09-10T11:58:23.276Z,10
2022-09-10T11:59:23.274Z,10
2022-09-10T12:00:23.281Z,13
2022-09-10T12:01:23.280Z,8
2022-09-10T12:02:23.307Z,12
2022-09-10T12:03:23.342Z,11
2022-09-10T12:04:23.274Z,12
2022-09-10T12:05:23.277Z,13
2022-09-10T12:06:23.283Z,12
2022-09-10T12:07:23.277Z,11
2022-09-10T12:08:23.276Z,11
2022-09-10T12:09:23.278Z,12
2022-09-10T12:10:23.290Z,11
2022-09-10T12:11:23.285Z,11
2022-09-10T12:12:23.282Z,9
2022-09-10T12:13:23.288Z,12
2022-09-10T12:14:23.295Z,10
2022-09-10T12:15:23.280Z,11
2022-09-10T12:17:23.287Z,10
2022-09-10T12:18:23.283Z,13
2022-09-10T12:19:23.288Z,11
2022-09-10T12:20:23.299Z,13
2022-09-10T12:21:23.321Z,12
2022-09-10T12:22:23.292Z,12
2022-09-10T12:23:23.289Z,11
2022-09-10T12:24:23.284Z,12
2022-09-10T12:25:23.292Z,13
2022-09-10T12:26:23.313Z,12
2022-09-10T12:27:23.290Z,12
2022-09-10T12:28:23.278Z,12
2022-09-10T12:29:23.300Z,11
2022-09-10T12:30:23.282Z,13
2022-09-10T12:31:23.347Z,11
2022-09-10T12:32:23.288Z,11
2022-09-10T12:33:23.299Z,14
2022-09-10T12:34:23.284Z,12
2022-09-10T12:35:23.294Z,14
2022-09-10T12:36:23.310Z,14
2022-09-10T12:37:23.305Z,13
2022-09-10T12:38:23.321Z,13
2022-09-10T12:39:23.320Z,14
2022-09-10T12:40:23.326Z,14
2022-09-10T12:41:23.285Z,14
2022-09-10T12:42:23.321Z,14
2022-09-10T12:43:23.304Z,14
2022-09-10T12:44:23.293Z,13
2022-09-10T12:45:23.304Z,13
2022-09-10T12:46:23.391Z,15
2022-09-10T12:47:23.298Z,13
2022-09-10T12:49:23.293Z,15
2022-09-10T12:50:23.313Z,14
2022-09-10T12:51:23.291Z,13
2022-09-10T12:52:23.345Z,15
2022-09-10T12:53:23.294Z,15
2022-09-10T12:54:23.297Z,14
2022-09-10T12:55:23.297Z,14
2022-09-10T12:56:23.315Z,12
2022-09-10T12:57:23.301Z,13
2022-09-10T12:58:23.298Z,14
2022-09-10T12:59:23.321Z,16
2022-09-10T13:00:23.305Z,13
2022-09-10T13:01:23.440Z,14
2022-09-10T13:02:23.427Z,14
2022-09-10T13:03:23.303Z,15
2022-09-10T13:04:23.304Z,11
2022-09-10T13:05:23.304Z,13
2022-09-10T13:06:23.305Z,13
2022-09-10T13:07:23.306Z,13
2022-09-10T13:08:23.302Z,15
2022-09-10T13:09:23.308Z,14
2022-09-10T13:10:23.305Z,12
2022-09-10T13:11:23.309Z,12
2022-09-10T13:12:23.312Z,15
2022-09-10T13:13:23.302Z,13
2022-09-10T13:14:23.305Z,14
2022-09-10T13:15:23.313Z,12
2022-09-10T13:16:23.308Z,13
2022-09-10T13:17:23.317Z,13
2022-09-10T13:18:23.305Z,14
2022-09-10T13:19:23.317Z,12
2022-09-10T13:20:23.317Z,14
2022-09-10T13:21:23.308Z,16
2022-09-10T13:22:23.307Z,12
2022-09-10T13:23:23.339Z,13
2022-09-10T13:24:23.317Z,12
2022-09-10T13:25:23.322Z,14
2022-09-10T13:26:23.315Z,16
2022-09-10T13:27:23.316Z,14
2022-09-10T13:28:23.316Z,12
2022-09-10T13:29:23.312Z,15
2022-09-10T13:30:23.314Z,12
2022-09-10T13:31:23.385Z,14
2022-09-10T13:32:23.319Z,14
2022-09-10T13:33:27.994Z,17
2022-09-10T13:34:23.321Z,13
2022-09-10T13:35:23.318Z,14
2022-09-10T13:36:23.321Z,13
2022-09-10T13:37:23.319Z,13
2022-09-10T13:38:23.324Z,15
2022-09-10T13:39:23.319Z,15
2022-09-10T13:40:23.317Z,14
2022-09-10T13:41:23.324Z,11
2022-09-10T13:42:23.318Z,15
2022-09-10T13:43:23.328Z,14
2022-09-10T13:44:23.339Z,13
2022-09-10T13:45:23.325Z,12
2022-09-10T13:46:23.397Z,12
2022-09-10T13:47:23.327Z,13
2022-09-10T13:48:23.320Z,12
2022-09-10T13:49:23.327Z,13
2022-09-10T13:50:23.329Z,13
2022-09-10T13:51:23.325Z,13
2022-09-10T13:52:23.327Z,15
2022-09-10T13:53:23.327Z,15
2022-09-10T13:54:23.351Z,13
2022-09-10T13:55:23.329Z,13
2022-09-10T13:56:23.358Z,14
2022-09-10T13:57:23.372Z,13
2022-09-10T13:58:23.332Z,12
2022-09-10T14:00:23.322Z,14
2022-09-10T14:01:23.369Z,15
2022-09-10T14:02:23.400Z,12
2022-09-10T14:03:23.362Z,12
2022-09-10T14:04:23.326Z,12
2022-09-10T14:05:23.330Z,15
2022-09-10T14:06:23.337Z,13
2022-09-10T14:07:23.367Z,14
2022-09-10T14:08:23.336Z,12
2022-09-10T14:09:23.341Z,13
2022-09-10T14:10:23.342Z,15
2022-09-10T14:11:23.332Z,13
2022-09-10T14:12:23.340Z,13
2022-09-10T14:13:23.335Z,13
2022-09-10T14:14:23.338Z,13
2022-09-10T14:15:23.352Z,14
2022-09-10T14:16:26.196Z,13
2022-09-10T14:17:23.341Z,14
2022-09-10T14:18:23.359Z,16
2022-09-10T14:19:23.340Z,14
2022-09-10T14:20:23.353Z,17
2022-09-10T14:21:23.363Z,18
2022-09-10T14:22:23.342Z,14
2022-09-10T14:23:23.345Z,14
2022-09-10T14:24:23.341Z,15
2022-09-10T14:25:23.378Z,14
2022-09-10T14:26:23.465Z,14
2022-09-10T14:27:23.349Z,15
2022-09-10T14:28:23.346Z,12
2022-09-10T14:29:23.484Z,13
2022-09-10T14:30:23.349Z,12
2022-09-10T14:31:23.426Z,11
2022-09-10T14:32:23.351Z,11
2022-09-10T14:33:23.353Z,12
2022-09-10T14:34:23.354Z,10
2022-09-10T14:35:23.345Z,11
2022-09-10T14:36:23.356Z,11
2022-09-10T14:37:23.347Z,11
2022-09-10T14:38:23.352Z,10
2022-09-10T14:39:23.362Z,11
2022-09-10T14:40:23.357Z,13
2022-09-10T14:41:23.352Z,10
2022-09-10T14:42:23.351Z,12
2022-09-10T14:43:23.348Z,12
2022-09-10T14:44:23.439Z,8
2022-09-10T14:45:23.353Z,10
2022-09-10T14:46:23.378Z,11
2022-09-10T14:47:23.348Z,10
2022-09-10T14:48:23.362Z,12
2022-09-10T14:49:23.354Z,11
2022-09-10T14:50:23.353Z,8
2022-09-10T14:51:23.367Z,8
2022-09-10T14:52:23.360Z,8
2022-09-10T14:53:23.355Z,10
2022-09-10T14:54:23.354Z,10
2022-09-10T14:55:23.360Z,8
2022-09-10T14:57:23.372Z,9